createdAt,value
2022-09-12T00:00:52.505Z,15.57
2022-09-12T00:03:19.398Z,15.54
2022-09-12T00:05:47.275Z,15.57
2022-09-12T00:08:14.198Z,15.58
2022-09-12T00:10:42.763Z,15.60
2022-09-12T00:13:10.049Z,15.57
2022-09-12T00:15:40.986Z,15.57
2022-09-12T00:18:09.645Z,15.59
2022-09-12T00:20:36.044Z,15.56
2022-09-12T00:23:02.465Z,15.54
2022-09-12T00:25:30.708Z,15.51
2022-09-12T00:27:57.177Z,15.52
2022-09-12T00:30:23.913Z,15.53
2022-09-12T00:32:51.527Z,15.50
2022-09-12T00:35:17.946Z,15.45
2022-09-12T00:37:44.616Z,15.41
2022-09-12T00:40:11.200Z,15.43
2022-09-12T00:42:37.592Z,15.42
2022-09-12T00:45:05.161Z,15.33
2022-09-12T00:47:32.049Z,15.27
2022-09-12T00:50:05.936Z,15.20
2022-09-12T00:52:36.177Z,15.09
2022-09-12T00:55:11.136Z,15.07
2022-09-12T00:57:50.595Z,15.05
2022-09-12T01:00:20.286Z,14.96
2022-09-12T01:02:50.658Z,14.89
2022-09-12T01:05:17.518Z,14.80
2022-09-12T01:07:44.705Z,14.69
2022-09-12T01:10:11.619Z,14.62
2022-09-12T01:12:40.103Z,14.55
2022-09-12T01:15:07.984Z,14.48
2022-09-12T01:18:07.925Z,14.51
2022-09-12T01:20:52.619Z,14.47
2022-09-12T01:23:31.213Z,14.48
2022-09-12T01:26:16.371Z,14.45
2022-09-12T01:29:10.613Z,14.46
2022-09-12T01:31:48.240Z,14.50
2022-09-12T01:34:28.119Z,14.49
2022-09-12T01:37:01.029Z,14.50
2022-09-12T01:39:35.290Z,14.49
2022-09-12T01:42:10.134Z,14.57
2022-09-12T01:44:44.848Z,14.57
2022-09-12T01:47:24.058Z,14.61
2022-09-12T01:49:57.158Z,14.61
2022-09-12T01:52:39.983Z,14.63
2022-09-12T01:55:12.879Z,14.64
2022-09-12T01:57:47.400Z,14.71
2022-09-12T02:00:14.443Z,14.69
2022-09-12T02:02:49.054Z,14.68
2022-09-12T02:05:25.870Z,14.65
2022-09-12T02:08:04.670Z,14.64
2022-09-12T02:10:34.653Z,14.62
2022-09-12T02:13:13.492Z,14.62
2022-09-12T02:15:43.928Z,14.73
2022-09-12T02:18:14.091Z,14.66
2022-09-12T02:20:48.433Z,14.62
2022-09-12T02:23:20.706Z,14.64
2022-09-12T02:25:48.937Z,14.60
2022-09-12T02:28:19.337Z,14.58
2022-09-12T02:30:56.898Z,14.56
2022-09-12T02:33:42.503Z,14.61
2022-09-12T02:36:27.688Z,14.57
2022-09-12T02:38:55.477Z,14.56
2022-09-12T02:41:22.510Z,14.53
2022-09-12T02:43:50.546Z,14.50
2022-09-12T02:46:25.077Z,14.47
2022-09-12T02:48:51.685Z,14.40
2022-09-12T02:51:22.895Z,14.44
2022-09-12T02:53:50.262Z,14.47
2022-09-12T02:56:30.911Z,14.48
2022-09-12T02:59:02.843Z,14.44
2022-09-12T03:01:44.896Z,14.46
2022-09-12T03:04:33.171Z,14.52
2022-09-12T03:07:31.501Z,14.51
2022-09-12T03:10:04.811Z,14.56
2022-09-12T03:12:38.691Z,14.62
2022-09-12T03:15:15.003Z,14.57
2022-09-12T03:18:10.133Z,14.54
2022-09-12T03:20:47.800Z,14.55
2022-09-12T03:23:30.181Z,14.57
2022-09-12T03:26:06.256Z,14.54
2022-09-12T03:28:34.812Z,14.54
2022-09-12T03:31:14.825Z,14.54
2022-09-12T03:33:41.396Z,14.55
2022-09-12T03:36:15.870Z,14.59
2022-09-12T03:38:42.659Z,14.65
2022-09-12T03:41:09.219Z,14.68
2022-09-12T04:15:16.328Z,14.49
2022-09-12T04:22:07.415Z,14.51
2022-09-12T04:24:33.952Z,14.49
2022-09-12T04:27:02.028Z,14.49
2022-09-12T04:29:31.433Z,14.52
2022-09-12T04:31:57.811Z,14.48
2022-09-12T04:34:24.373Z,14.54
2022-09-12T04:36:50.777Z,14.54
2022-09-12T04:39:17.157Z,14.57
2022-09-12T04:41:43.767Z,14.53
2022-09-12T04:44:12.572Z,14.54
2022-09-12T04:46:41.391Z,14.53
2022-09-12T04:49:08.377Z,14.54
2022-09-12T04:51:37.009Z,14.55
2022-09-12T04:54:05.924Z,14.59
2022-09-12T04:56:34.367Z,14.65
2022-09-12T04:59:01.401Z,14.69
2022-09-12T05:01:29.972Z,14.71
2022-09-12T05:03:57.748Z,14.72
2022-09-12T05:06:33.026Z,14.66
2022-09-12T05:09:00.414Z,14.71
2022-09-12T05:11:46.942Z,14.77
2022-09-12T05:14:16.404Z,14.74
2022-09-12T05:16:46.120Z,14.82
2022-09-12T05:19:15.782Z,14.85
2022-09-12T05:21:42.559Z,14.78
2022-09-12T05:24:10.521Z,14.92
2022-09-12T05:26:37.180Z,14.96
2022-09-12T05:29:04.222Z,14.98
2022-09-12T05:31:30.736Z,15.00
2022-09-12T05:33:57.707Z,15.00
2022-09-12T05:36:29.246Z,15.06
2022-09-12T05:38:56.538Z,15.07
2022-09-12T05:41:25.435Z,15.18
2022-09-12T05:43:53.896Z,15.27
2022-09-12T05:46:21.861Z,15.34
2022-09-12T05:48:56.328Z,15.47
2022-09-12T05:51:28.390Z,15.53
2022-09-12T05:54:00.285Z,15.55
2022-09-12T05:56:31.918Z,15.54
2022-09-12T05:59:03.255Z,15.55
2022-09-12T06:01:31.083Z,15.57
2022-09-12T06:04:00.768Z,15.61
2022-09-12T06:06:28.327Z,15.72
2022-09-12T06:08:57.904Z,15.80
2022-09-12T06:11:26.875Z,15.84
2022-09-12T06:13:53.424Z,16.03
2022-09-12T06:16:22.159Z,16.14
2022-09-12T06:19:00.262Z,16.06
2022-09-12T06:21:27.198Z,16.20
2022-09-12T06:23:58.623Z,16.26
2022-09-12T06:26:26.141Z,16.37
2022-09-12T06:28:54.117Z,16.37
2022-09-12T06:31:23.156Z,16.39
2022-09-12T06:33:51.769Z,16.61
2022-09-12T06:36:23.992Z,16.79
2022-09-12T06:38:59.383Z,16.95
2022-09-12T06:41:25.913Z,16.89
2022-09-12T06:43:53.288Z,17.03
2022-09-12T06:46:20.086Z,17.00
2022-09-12T06:48:46.916Z,16.84
2022-09-12T06:51:15.693Z,17.05
2022-09-12T06:53:43.112Z,17.28
2022-09-12T06:56:21.659Z,17.64
2022-09-12T06:58:49.690Z,17.88
2022-09-12T07:01:16.997Z,18.07
2022-09-12T07:03:48.675Z,18.14
2022-09-12T07:06:16.772Z,18.30
2022-09-12T07:08:43.310Z,18.26
2022-09-12T07:11:14.104Z,18.31
2022-09-12T07:13:41.887Z,18.50
2022-09-12T07:16:08.949Z,18.23
2022-09-12T07:18:35.787Z,18.29
2022-09-12T07:21:03.010Z,18.29
2022-09-12T07:23:29.834Z,18.45
2022-09-12T07:25:57.812Z,18.76
2022-09-12T07:28:25.263Z,18.86
2022-09-12T07:30:53.903Z,18.99
2022-09-12T07:33:26.657Z,18.75
2022-09-12T07:35:54.415Z,18.57
2022-09-12T07:38:21.944Z,18.73
2022-09-12T07:40:48.755Z,18.70
2022-09-12T07:43:15.246Z,18.90
2022-09-12T07:45:42.664Z,19.25
2022-09-12T07:48:09.710Z,19.50
2022-09-12T07:50:36.746Z,19.90
2022-09-12T07:53:06.626Z,19.89
2022-09-12T07:55:33.040Z,19.77
2022-09-12T07:57:59.463Z,19.62
2022-09-12T08:00:26.681Z,19.69
2022-09-12T08:02:54.356Z,19.68
2022-09-12T08:05:21.095Z,19.46
2022-09-12T08:07:47.523Z,19.51
2022-09-12T08:10:14.010Z,19.63
2022-09-12T08:12:40.383Z,19.83
2022-09-12T08:15:07.135Z,19.77
2022-09-12T08:17:33.581Z,20.07
2022-09-12T08:19:59.981Z,20.24
2022-09-12T08:22:26.435Z,20.87
2022-09-12T08:24:53.553Z,21.35
2022-09-12T08:27:20.096Z,23.58
2022-09-12T08:29:46.455Z,25.55
2022-09-12T08:32:12.980Z,26.32
2022-09-12T08:34:39.414Z,25.42
2022-09-12T08:37:05.882Z,24.96
2022-09-12T08:39:33.280Z,24.07
2022-09-12T08:42:04.874Z,23.18
2022-09-12T08:44:53.484Z,22.89
2022-09-12T08:47:25.266Z,23.84
2022-09-12T08:50:01.641Z,25.47
2022-09-12T08:52:40.588Z,27.24
2022-09-12T08:55:24.845Z,27.76
2022-09-12T08:57:52.013Z,29.44
2022-09-12T09:00:19.379Z,30.53
2022-09-12T09:03:15.735Z,30.09
2022-09-12T09:05:48.877Z,28.98
2022-09-12T09:08:22.761Z,27.84
2022-09-12T09:11:20.173Z,28.55
2022-09-12T09:14:30.299Z,29.77
2022-09-12T09:16:57.067Z,31.60
2022-09-12T09:19:28.384Z,29.33
2022-09-12T09:21:59.383Z,28.11
2022-09-12T09:24:30.120Z,28.80
2022-09-12T09:27:02.092Z,29.12
2022-09-12T09:29:45.755Z,30.62
2022-09-12T09:32:30.012Z,32.45
2022-09-12T09:34:56.446Z,34.18
2022-09-12T09:37:39.045Z,32.94
2022-09-12T09:40:20.709Z,34.00
2022-09-12T09:43:02.231Z,28.90
2022-09-12T09:45:29.720Z,28.06
2022-09-12T09:48:25.821Z,27.27
2022-09-12T09:50:52.533Z,27.15
2022-09-12T09:53:29.705Z,25.88
2022-09-12T09:55:56.976Z,27.15
2022-09-12T09:58:34.253Z,26.42
2022-09-12T10:01:16.072Z,27.00
2022-09-12T10:03:54.028Z,28.75
2022-09-12T10:06:23.383Z,30.82
2022-09-12T10:08:50.595Z,32.13
2022-09-12T10:11:20.719Z,30.09
2022-09-12T10:13:50.186Z,30.65
2022-09-12T10:16:22.163Z,28.67
2022-09-12T10:18:51.083Z,27.41
2022-09-12T10:21:46.847Z,26.47
2022-09-12T10:24:23.951Z,25.83
2022-09-12T10:26:58.850Z,25.28
2022-09-12T10:29:32.146Z,24.99
2022-09-12T10:32:01.090Z,25.02
2022-09-12T10:34:46.143Z,25.46
2022-09-12T10:37:31.761Z,25.25
2022-09-12T10:39:59.659Z,26.74
2022-09-12T10:42:50.222Z,26.99
2022-09-12T10:45:29.127Z,27.37
2022-09-12T10:48:04.112Z,27.50
2022-09-12T10:50:43.378Z,28.06
2022-09-12T10:53:23.195Z,27.92
2022-09-12T10:55:59.219Z,29.83
2022-09-12T10:58:51.941Z,30.88
2022-09-12T11:01:37.201Z,31.86
2022-09-12T11:04:14.726Z,33.07
2022-09-12T11:06:53.306Z,33.67
2022-09-12T11:09:32.063Z,33.26
2022-09-12T11:12:18.771Z,34.37
2022-09-12T11:15:19.271Z,34.29
2022-09-12T11:17:55.696Z,31.92
2022-09-12T11:20:53.245Z,31.44
2022-09-12T11:23:57.474Z,30.73
2022-09-12T11:26:33.935Z,29.80
2022-09-12T11:29:10.346Z,28.21
2022-09-12T11:31:55.691Z,27.95
2022-09-12T11:34:42.544Z,27.29
2022-09-12T11:37:20.599Z,28.04
2022-09-12T11:39:52.244Z,28.41
2022-09-12T11:42:33.359Z,28.95
2022-09-12T11:45:06.110Z,28.71
2022-09-12T11:47:34.867Z,27.89
2022-09-12T11:50:05.949Z,27.34
2022-09-12T11:52:36.301Z,26.57
2022-09-12T11:55:06.406Z,26.17
2022-09-12T11:57:40.917Z,25.82
2022-09-12T12:00:20.683Z,25.42
2022-09-12T12:03:08.871Z,26.09
2022-09-12T12:05:52.120Z,25.75
2022-09-12T12:08:19.448Z,25.58
2022-09-12T12:10:56.369Z,24.61
2022-09-12T12:13:43.171Z,25.13
2022-09-12T12:16:13.901Z,25.14
2022-09-12T12:18:40.753Z,25.80
2022-09-12T12:21:29.300Z,26.74
2022-09-12T12:24:04.740Z,26.58
2022-09-12T12:26:42.360Z,26.41
2022-09-12T12:29:18.146Z,26.07
2022-09-12T12:32:01.893Z,25.11
2022-09-12T12:34:35.968Z,25.66
2022-09-12T12:37:21.247Z,25.47
2022-09-12T12:39:51.320Z,25.79
2022-09-12T12:42:33.185Z,25.64
2022-09-12T12:45:00.650Z,26.19
2022-09-12T12:47:30.995Z,25.90
2022-09-12T12:49:59.983Z,25.91
2022-09-12T12:52:29.096Z,25.64
2022-09-12T12:54:57.419Z,25.60
2022-09-12T12:57:37.813Z,26.31
2022-09-12T13:00:24.243Z,26.90
2022-09-12T13:03:09.110Z,26.47
2022-09-12T13:05:41.651Z,27.26
2022-09-12T13:08:11.348Z,27.15
2022-09-12T13:10:38.141Z,26.31
2022-09-12T13:13:07.119Z,26.98
2022-09-12T13:15:36.736Z,27.24
2022-09-12T13:18:06.561Z,27.11
2022-09-12T13:20:38.582Z,27.05
2022-09-12T13:23:04.980Z,27.14
2022-09-12T13:25:33.926Z,26.78
2022-09-12T13:28:27.049Z,26.82
2022-09-12T13:31:11.543Z,27.06
2022-09-12T13:33:47.383Z,26.88
2022-09-12T13:36:36.929Z,27.02
2022-09-12T13:39:28.480Z,27.13
2022-09-12T13:42:16.467Z,27.24
2022-09-12T13:44:46.248Z,26.71
2022-09-12T13:47:16.426Z,27.20
2022-09-12T13:49:43.290Z,26.80
2022-09-12T13:52:17.298Z,26.88
2022-09-12T13:54:45.915Z,26.49
2022-09-12T13:57:33.253Z,26.31
2022-09-12T14:00:02.107Z,26.05
2022-09-12T14:02:29.362Z,25.57
2022-09-12T14:05:11.482Z,25.29
2022-09-12T14:07:44.230Z,25.65
2022-09-12T14:10:16.799Z,25.46
2022-09-12T14:12:43.915Z,25.35
2022-09-12T14:15:19.664Z,24.05
2022-09-12T14:17:52.053Z,23.36
2022-09-12T14:20:20.346Z,24.05
2022-09-12T14:22:50.934Z,24.37
2022-09-12T14:25:20.359Z,24.27
2022-09-12T14:27:52.517Z,24.38
2022-09-12T14:30:30.694Z,24.42
2022-09-12T14:33:03.433Z,24.13
2022-09-12T14:35:30.109Z,23.67
2022-09-12T14:37:56.736Z,24.04
2022-09-12T14:40:23.960Z,24.15
2022-09-12T14:42:52.587Z,24.07
2022-09-12T14:45:27.317Z,23.80
2022-09-12T14:47:54.108Z,23.75
2022-09-12T14:50:26.375Z,23.90
2022-09-12T14:53:26.472Z,24.00
2022-09-12T14:56:04.982Z,24.02
2022-09-12T14:58:31.601Z,23.87
2022-09-12T15:01:21.269Z,22.81
2022-09-12T15:03:49.999Z,23.12
2022-09-12T15:06:36.519Z,22.84
2022-09-12T15:09:06.699Z,23.28
2022-09-12T15:11:33.837Z,22.97
2022-09-12T15:14:07.696Z,22.75
2022-09-12T15:16:34.111Z,22.86
2022-09-12T15:19:00.510Z,22.64
2022-09-12T15:21:28.227Z,22.75
2022-09-12T15:23:54.785Z,22.53
2022-09-12T15:26:23.734Z,22.88
2022-09-12T15:28:50.941Z,22.76
2022-09-12T15:31:27.202Z,22.36
2022-09-12T15:33:54.705Z,22.54
2022-09-12T15:36:22.843Z,22.51
2022-09-12T15:38:49.821Z,22.49
2022-09-12T15:41:25.511Z,22.06
2022-09-12T15:43:52.482Z,21.88
2022-09-12T15:46:19.611Z,21.99
2022-09-12T15:48:46.379Z,22.15
2022-09-12T15:51:15.652Z,22.11
2022-09-12T15:53:42.998Z,21.81
2022-09-12T15:56:09.513Z,21.91
2022-09-12T15:58:36.203Z,21.95
2022-09-12T16:01:03.416Z,21.94
2022-09-12T16:03:30.360Z,21.70
2022-09-12T16:06:01.910Z,21.61
2022-09-12T16:08:31.049Z,21.38
2022-09-12T16:11:00.441Z,21.15
2022-09-12T16:13:27.136Z,21.08
2022-09-12T16:15:57.133Z,21.11
2022-09-12T16:18:24.460Z,21.17
2022-09-12T16:20:55.124Z,21.05
2022-09-12T16:23:21.878Z,20.92
2022-09-12T16:26:02.408Z,20.98
2022-09-12T16:28:29.163Z,20.79
2022-09-12T16:30:57.058Z,20.65
2022-09-12T16:33:23.939Z,20.34
2022-09-12T16:35:51.241Z,20.34
2022-09-12T16:38:18.220Z,20.40
2022-09-12T16:40:44.769Z,20.21
2022-09-12T16:43:11.193Z,20.02
2022-09-12T16:45:37.590Z,20.08
2022-09-12T16:48:04.353Z,20.10
2022-09-12T16:50:31.531Z,20.02
2022-09-12T16:52:59.032Z,19.91
2022-09-12T16:55:25.430Z,19.93
2022-09-12T16:57:51.834Z,19.91
2022-09-12T17:00:18.320Z,19.74
2022-09-12T17:02:44.898Z,19.56
2022-09-12T17:05:11.502Z,19.56
2022-09-12T17:07:37.894Z,19.49
2022-09-12T17:10:05.128Z,19.45
2022-09-12T17:12:31.560Z,19.41
2022-09-12T17:14:58.657Z,19.30
2022-09-12T17:17:25.140Z,19.20
2022-09-12T17:19:51.688Z,19.00
2022-09-12T17:22:18.068Z,18.86
2022-09-12T17:24:44.420Z,18.66
2022-09-12T17:27:11.520Z,18.56
2022-09-12T17:29:38.579Z,18.42
2022-09-12T17:32:05.149Z,18.26
2022-09-12T17:34:31.957Z,18.23
2022-09-12T17:36:58.426Z,18.25
2022-09-12T17:39:24.862Z,18.33
2022-09-12T17:41:51.895Z,18.39
2022-09-12T17:44:19.244Z,18.27
2022-09-12T17:46:45.851Z,18.18
2022-09-12T17:49:14.878Z,18.19
2022-09-12T17:51:42.156Z,18.26
2022-09-12T17:54:12.980Z,18.14
2022-09-12T17:56:40.245Z,18.05
2022-09-12T17:59:07.678Z,18.01
2022-09-12T18:01:53.001Z,17.91
2022-09-12T18:04:20.081Z,17.83
2022-09-12T18:06:50.152Z,17.81
2022-09-12T18:09:21.664Z,17.80
2022-09-12T18:11:50.138Z,17.81
2022-09-12T18:14:17.578Z,17.83
2022-09-12T18:16:44.321Z,17.76
2022-09-12T18:19:11.461Z,17.68
2022-09-12T18:21:38.097Z,17.69
2022-09-12T18:24:04.875Z,17.55
2022-09-12T18:26:32.247Z,17.56
2022-09-12T18:28:59.103Z,17.46
2022-09-12T18:31:28.955Z,17.40
2022-09-12T18:33:57.041Z,17.35
2022-09-12T18:36:23.977Z,17.31
2022-09-12T18:38:50.948Z,17.21
2022-09-12T18:41:26.946Z,17.17
2022-09-12T18:43:55.445Z,17.07
2022-09-12T18:46:22.051Z,17.03
2022-09-12T18:48:48.607Z,16.96
2022-09-12T18:51:22.764Z,16.89
2022-09-12T18:53:54.819Z,16.84
2022-09-12T18:56:22.730Z,16.81
2022-09-12T18:58:54.830Z,16.76
2022-09-12T19:01:23.542Z,16.70
2022-09-12T19:03:50.399Z,16.67
2022-09-12T19:06:19.591Z,16.60
2022-09-12T19:08:46.447Z,16.48
2022-09-12T19:11:13.222Z,16.40
2022-09-12T19:13:42.305Z,16.36
2022-09-12T19:16:10.729Z,16.34
2022-09-12T19:18:38.086Z,16.30
2022-09-12T19:21:06.322Z,16.30
2022-09-12T19:23:36.499Z,16.16
2022-09-12T19:26:05.414Z,16.14
2022-09-12T19:28:32.189Z,16.10
2022-09-12T19:30:58.882Z,16.03
2022-09-12T19:33:25.913Z,15.98
2022-09-12T19:35:52.327Z,15.91
2022-09-12T19:38:19.020Z,15.94
2022-09-12T19:40:55.768Z,15.83
2022-09-12T19:43:22.231Z,15.77
2022-09-12T19:45:48.641Z,15.73
2022-09-12T19:48:15.102Z,15.72
2022-09-12T19:50:41.515Z,15.69
2022-09-12T19:53:08.253Z,15.62
2022-09-12T19:55:35.294Z,15.58
2022-09-12T19:58:02.014Z,15.53
2022-09-12T20:00:29.270Z,15.50
2022-09-12T20:02:55.858Z,15.47
2022-09-12T20:05:22.283Z,15.42
2022-09-12T20:07:48.908Z,15.35
2022-09-12T20:10:15.670Z,15.34
2022-09-12T20:12:42.230Z,15.29
2022-09-12T20:15:09.444Z,15.26
2022-09-12T20:17:36.262Z,15.16
2022-09-12T20:20:03.132Z,15.11
2022-09-12T20:22:29.547Z,15.10
2022-09-12T20:24:55.977Z,15.01
2022-09-12T20:27:22.363Z,15.00
2022-09-12T20:29:48.731Z,14.97
2022-09-12T20:32:15.105Z,14.91
2022-09-12T20:34:41.515Z,14.87
2022-09-12T20:37:08.057Z,14.79
2022-09-12T20:39:34.440Z,14.69
2022-09-12T20:42:01.080Z,14.68
2022-09-12T20:44:27.643Z,14.63
2022-09-12T20:46:54.116Z,14.62
2022-09-12T20:49:20.798Z,14.56
2022-09-12T20:51:48.369Z,14.54
2022-09-12T20:54:14.863Z,14.52
2022-09-12T20:56:41.418Z,14.48
2022-09-12T20:59:08.126Z,14.44
2022-09-12T21:01:34.838Z,14.40
2022-09-12T21:04:01.931Z,14.38
2022-09-12T21:06:28.378Z,14.42
2022-09-12T21:08:58.618Z,14.42
2022-09-12T21:11:25.397Z,14.38
2022-09-12T21:13:52.705Z,14.30
2022-09-12T21:16:21.100Z,14.35
2022-09-12T21:18:52.251Z,14.30
2022-09-12T21:21:18.643Z,14.27
2022-09-12T21:23:45.158Z,14.21
2022-09-12T21:26:12.026Z,14.23
2022-09-12T21:28:39.662Z,14.28
2022-09-12T21:31:06.456Z,14.25
2022-09-12T21:33:33.017Z,14.26
2022-09-12T21:36:04.032Z,14.23
2022-09-12T21:38:30.885Z,14.14
2022-09-12T21:41:04.936Z,14.07
2022-09-12T21:43:31.422Z,14.05
2022-09-12T21:45:59.207Z,14.00
2022-09-12T21:48:25.860Z,13.99
2022-09-12T21:50:52.375Z,13.99
2022-09-12T21:53:18.843Z,13.96
2022-09-12T21:55:45.287Z,13.97
2022-09-12T21:58:11.695Z,14.00
2022-09-12T22:00:38.928Z,13.95
2022-09-12T22:03:05.387Z,13.90
2022-09-12T22:05:32.674Z,13.91
2022-09-12T22:08:00.677Z,13.87
2022-09-12T22:10:28.358Z,13.83
2022-09-12T22:12:54.802Z,13.84
2022-09-12T22:15:40.029Z,13.85
2022-09-12T22:18:07.694Z,13.78
2022-09-12T22:20:34.251Z,13.77
2022-09-12T22:23:24.380Z,13.71
2022-09-12T22:25:54.027Z,13.71
2022-09-12T22:28:21.282Z,13.65
2022-09-12T22:30:48.486Z,13.66
2022-09-12T22:33:14.986Z,13.61
2022-09-12T22:35:42.389Z,13.55
2022-09-12T22:38:09.070Z,13.49
2022-09-12T22:40:35.796Z,13.45
2022-09-12T22:43:02.390Z,13.45
2022-09-12T22:45:28.837Z,13.43
2022-09-12T22:47:56.377Z,13.40
2022-09-12T22:50:25.687Z,13.36
2022-09-12T22:52:52.643Z,13.29
2022-09-12T22:55:19.252Z,13.30
2022-09-12T22:57:45.645Z,13.35
2022-09-12T23:00:14.001Z,13.30
2022-09-12T23:02:40.558Z,13.34
2022-09-12T23:05:07.146Z,13.31
2022-09-12T23:07:33.674Z,13.26
2022-09-12T23:10:00.201Z,13.26
2022-09-12T23:12:26.593Z,13.21
2022-09-12T23:14:54.316Z,13.15
2022-09-12T23:18:14.031Z,13.17
2022-09-12T23:20:43.156Z,13.11
2022-09-12T23:23:10.406Z,13.09
2022-09-12T23:25:37.156Z,13.07
2022-09-12T23:28:04.931Z,13.05
2022-09-12T23:30:32.402Z,13.05
2022-09-12T23:32:59.511Z,13.02
2022-09-12T23:35:26.473Z,12.99
2022-09-12T23:37:52.942Z,12.97
2022-09-12T23:40:20.098Z,13.03
2022-09-12T23:42:46.865Z,12.93
2022-09-12T23:45:13.550Z,12.91
2022-09-12T23:47:40.805Z,12.87
2022-09-12T23:50:08.355Z,12.85
2022-09-12T23:52:35.126Z,12.83
2022-09-12T23:55:01.626Z,12.85
2022-09-12T23:57:28.699Z,12.81
2022-09-12T23:59:55.072Z,12.84
